Time;durP1;ratioP1;P1;durP2;ratioP2;P2;SDS_P1;SDS_P2;PMS_P1;PMS_P2;Temp;Humidity;BMP_temperature;BMP_pressure;BME280_temperature;BME280_humidity;BME280_pressure;Samples;Min_cycle;Max_cycle;Signal;HPM_P1;HPM_P2
2023/09/19 00:00:49;;;;;;;9.57;3.03;;;14.90;99.90;;;;;;5035064;28;20237;-65
2023/09/19 00:03:18;;;;;;;8.90;2.80;;;14.80;99.90;;;;;;5030138;28;20189;-64
2023/09/19 00:05:47;;;;;;;7.90;2.43;;;14.80;99.90;;;;;;5020076;28;20202;-65
2023/09/19 00:08:16;;;;;;;4.70;2.20;;;14.80;99.90;;;;;;5022877;28;20231;-65
2023/09/19 00:14:27;;;;;;;9.30;3.13;;;14.90;99.90;;;;;;5035037;28;20605;-65
2023/09/19 00:16:56;;;;;;;6.83;2.70;;;14.80;99.90;;;;;;5051837;28;20232;-64
2023/09/19 00:19:24;;;;;;;8.37;2.57;;;14.80;99.90;;;;;;5055122;28;20231;-65
2023/09/19 00:21:54;;;;;;;7.73;2.63;;;14.80;99.90;;;;;;5054787;28;20286;-65
2023/09/19 00:24:23;;;;;;;13.87;2.90;;;14.80;99.90;;;;;;5055208;28;20270;-65
2023/09/19 00:26:51;;;;;;;14.23;3.13;;;14.80;99.90;;;;;;5068147;28;20247;-65
2023/09/19 00:29:20;;;;;;;8.03;3.00;;;14.70;99.90;;;;;;5055094;28;20596;-65
2023/09/19 00:31:50;;;;;;;8.03;2.57;;;14.70;99.90;;;;;;5040268;28;20235;-65
2023/09/19 00:34:18;;;;;;;8.47;2.57;;;14.60;99.90;;;;;;5034646;28;20239;-65
2023/09/19 00:36:47;;;;;;;8.27;2.70;;;14.60;99.90;;;;;;5040561;28;20323;-65
2023/09/19 00:39:16;;;;;;;9.73;2.83;;;14.50;99.90;;;;;;5054506;28;20226;-64
2023/09/19 00:41:44;;;;;;;10.47;2.93;;;14.50;99.90;;;;;;5060023;28;20189;-64
2023/09/19 00:44:13;;;;;;;8.53;2.47;;;14.60;99.90;;;;;;5072140;28;20225;-65
2023/09/19 00:46:42;;;;;;;11.53;2.60;;;14.60;99.90;;;;;;5074555;28;20821;-64
2023/09/19 00:49:12;;;;;;;8.40;2.53;;;14.60;99.90;;;;;;5074569;28;20261;-64
2023/09/19 00:51:45;;;;;;;6.47;2.30;;;14.60;99.90;;;;;;5073861;28;20250;-65
2023/09/19 00:54:18;;;;;;;10.43;2.67;;;14.50;99.90;;;;;;5059814;28;20553;-65
2023/09/19 00:56:48;;;;;;;9.07;2.83;;;14.50;99.90;;;;;;5031351;28;20670;-65
2023/09/19 00:59:17;;;;;;;9.90;2.40;;;14.50;99.90;;;;;;5029710;28;20242;-65
2023/09/19 01:01:48;;;;;;;14.37;2.90;;;14.50;99.90;;;;;;5028370;28;20229;-65
2023/09/19 01:04:17;;;;;;;8.20;2.70;;;14.50;99.90;;;;;;5034184;28;20243;-65
2023/09/19 01:06:46;;;;;;;6.60;2.57;;;14.50;99.90;;;;;;5034371;28;20231;-65
2023/09/19 01:09:15;;;;;;;8.97;2.50;;;14.50;99.90;;;;;;5034233;28;20668;-65
2023/09/19 01:11:48;;;;;;;8.93;2.57;;;14.50;99.90;;;;;;5034634;28;20306;-65
2023/09/19 01:14:31;;;;;;;13.53;3.00;;;14.50;99.90;;;;;;5025228;28;20231;-65
2023/09/19 01:17:09;;;;;;;9.00;2.60;;;14.50;99.90;;;;;;5014052;28;20649;-65
2023/09/19 01:20:18;;;;;;;10.20;2.53;;;14.60;99.90;;;;;;5025901;28;20229;-65
2023/09/19 01:22:57;;;;;;;9.07;2.97;;;14.60;99.90;;;;;;5033946;28;20751;-65
2023/09/19 01:26:11;;;;;;;8.27;2.87;;;14.60;99.90;;;;;;5069328;28;20232;-65
2023/09/19 01:28:55;;;;;;;6.00;2.50;;;14.60;99.90;;;;;;5053263;28;20661;-65
2023/09/19 01:31:29;;;;;;;10.63;2.93;;;14.60;99.90;;;;;;5052480;28;20228;-64
2023/09/19 01:34:00;;;;;;;8.50;2.40;;;14.70;99.90;;;;;;5053418;28;20233;-65
2023/09/19 01:36:30;;;;;;;11.33;2.53;;;14.70;99.90;;;;;;5061803;28;20620;-64
2023/09/19 01:39:05;;;;;;;10.23;2.53;;;14.70;99.90;;;;;;5054764;28;20663;-65
2023/09/19 01:41:49;;;;;;;14.13;2.93;;;14.70;99.90;;;;;;5055023;28;20668;-65
2023/09/19 01:44:23;;;;;;;10.43;2.40;;;14.70;99.90;;;;;;5017002;28;20228;-65
2023/09/19 01:46:59;;;;;;;10.87;2.87;;;14.70;99.90;;;;;;5033439;28;20616;-65
2023/09/19 01:49:36;;;;;;;10.17;2.70;;;14.70;99.90;;;;;;5039292;28;20574;-65
2023/09/19 01:52:13;;;;;;;8.97;2.60;;;14.70;99.90;;;;;;5046392;28;20689;-65
2023/09/19 01:54:48;;;;;;;10.37;2.97;;;14.80;99.90;;;;;;5040000;28;20226;-65
2023/09/19 01:57:23;;;;;;;12.43;3.20;;;14.80;99.90;;;;;;5033151;28;20201;-65
2023/09/19 01:59:57;;;;;;;8.90;2.80;;;14.80;99.90;;;;;;5034899;28;20189;-64
2023/09/19 02:02:29;;;;;;;19.97;3.33;;;14.80;99.90;;;;;;5052590;28;20213;-64
2023/09/19 02:04:57;;;;;;;8.20;2.53;;;14.80;99.90;;;;;;5050455;28;20616;-65
2023/09/19 02:07:27;;;;;;;11.13;2.80;;;14.80;99.90;;;;;;5048618;28;20706;-65
2023/09/19 02:09:55;;;;;;;8.47;2.37;;;14.90;99.90;;;;;;5031860;28;20693;-64
2023/09/19 02:12:24;;;;;;;11.53;3.10;;;14.90;99.90;;;;;;5032658;28;20504;-65
2023/09/19 02:14:52;;;;;;;14.83;3.27;;;14.90;99.90;;;;;;5020599;28;20192;-65
2023/09/19 02:17:20;;;;;;;7.53;3.20;;;14.90;99.90;;;;;;5013471;28;20252;-65
2023/09/19 02:19:50;;;;;;;10.53;2.87;;;14.80;99.90;;;;;;5023466;28;20219;-65
2023/09/19 02:22:20;;;;;;;7.80;3.23;;;14.80;99.90;;;;;;5033075;28;20261;-64
2023/09/19 02:28:31;;;;;;;9.70;2.60;;;14.90;99.90;;;;;;5021880;28;20271;-65
2023/09/19 02:31:00;;;;;;;14.70;3.17;;;14.90;99.90;;;;;;5036787;28;20235;-65
2023/09/19 02:33:32;;;;;;;7.97;2.80;;;14.90;99.90;;;;;;5036135;28;20313;-65
2023/09/19 02:36:03;;;;;;;14.10;2.90;;;14.90;99.90;;;;;;5053605;28;20576;-65
2023/09/19 02:38:32;;;;;;;12.13;2.60;;;14.90;99.90;;;;;;5051436;28;20253;-65
2023/09/19 02:41:01;;;;;;;10.70;3.60;;;14.90;99.90;;;;;;5052842;28;20680;-65
2023/09/19 02:43:29;;;;;;;10.13;3.03;;;14.80;99.90;;;;;;5052637;28;20313;-65
2023/09/19 02:45:58;;;;;;;15.37;3.47;;;14.90;99.90;;;;;;5052708;28;20245;-65
2023/09/19 02:48:26;;;;;;;8.80;2.47;;;14.80;99.90;;;;;;5052829;28;20230;-65
2023/09/19 02:50:55;;;;;;;7.07;2.77;;;14.80;99.90;;;;;;5053540;28;20529;-65
2023/09/19 02:53:25;;;;;;;7.77;2.70;;;14.90;99.90;;;;;;5052510;28;20225;-64
2023/09/19 02:55:54;;;;;;;17.07;3.03;;;14.90;99.90;;;;;;5067855;28;20321;-64
2023/09/19 02:58:24;;;;;;;12.07;3.00;;;14.90;99.90;;;;;;5052321;28;20229;-64
2023/09/19 03:00:55;;;;;;;13.43;2.83;;;15.00;99.90;;;;;;5052823;28;20270;-64
2023/09/19 03:03:24;;;;;;;10.27;2.50;;;14.90;99.90;;;;;;5052336;28;20246;-64
2023/09/19 03:05:56;;;;;;;8.57;2.53;;;14.90;99.90;;;;;;5042775;28;20199;-64
2023/09/19 03:08:26;;;;;;;11.33;2.50;;;14.90;99.90;;;;;;5051471;28;20786;-64
2023/09/19 03:10:54;;;;;;;8.60;2.93;;;15.00;99.90;;;;;;5038358;28;20597;-64
2023/09/19 03:13:22;;;;;;;5.00;2.37;;;15.00;99.90;;;;;;5046586;28;20230;-65
2023/09/19 03:15:51;;;;;;;8.80;2.50;;;15.00;99.90;;;;;;5059305;28;20232;-65
2023/09/19 03:18:20;;;;;;;7.40;2.23;;;15.00;99.90;;;;;;5056266;28;20188;-65
2023/09/19 03:20:54;;;;;;;8.83;2.90;;;15.00;99.90;;;;;;5056281;28;20195;-64
2023/09/19 03:23:25;;;;;;;6.43;2.40;;;15.00;99.90;;;;;;5054638;28;20225;-65
2023/09/19 03:25:54;;;;;;;7.77;2.50;;;14.90;99.90;;;;;;5055801;28;20222;-64
2023/09/19 03:28:23;;;;;;;10.17;2.60;;;15.00;99.90;;;;;;5054531;28;20234;-64
2023/09/19 03:31:02;;;;;;;8.43;2.53;;;15.00;99.90;;;;;;5055814;28;20229;-65
2023/09/19 03:33:32;;;;;;;10.23;2.50;;;15.00;99.90;;;;;;5056027;28;20259;-65
2023/09/19 03:36:04;;;;;;;13.27;2.80;;;14.90;99.90;;;;;;5067144;28;20197;-65
2023/09/19 03:39:10;;;;;;;13.00;3.00;;;14.90;99.90;;;;;;5062818;28;20648;-65
2023/09/19 03:41:40;;;;;;;11.57;2.97;;;14.90;99.90;;;;;;5016243;28;20765;-65
2023/09/19 03:44:08;;;;;;;13.23;2.87;;;14.90;99.90;;;;;;5032721;28;20231;-65
2023/09/19 03:46:37;;;;;;;11.73;2.70;;;15.00;99.90;;;;;;5035722;28;20227;-65
2023/09/19 03:52:47;;;;;;;11.83;3.10;;;14.90;99.90;;;;;;5051266;28;20594;-65
2023/09/19 03:55:15;;;;;;;11.47;2.97;;;14.80;99.90;;;;;;5045643;28;20221;-65
2023/09/19 03:57:49;;;;;;;11.70;2.80;;;14.70;99.90;;;;;;5055463;28;20229;-65
2023/09/19 04:00:21;;;;;;;12.30;3.20;;;14.70;99.90;;;;;;5055404;28;20200;-65
2023/09/19 04:02:49;;;;;;;13.73;2.97;;;14.60;99.90;;;;;;5055951;28;20277;-65
2023/09/19 04:05:17;;;;;;;15.63;3.20;;;14.60;99.90;;;;;;5055228;28;20229;-65
2023/09/19 04:07:46;;;;;;;10.87;2.80;;;14.50;99.90;;;;;;5055378;28;20342;-65
2023/09/19 04:10:15;;;;;;;10.10;3.10;;;14.50;99.90;;;;;;5054959;28;20291;-65
2023/09/19 04:12:54;;;;;;;13.47;2.80;;;14.40;99.90;;;;;;5054766;28;20226;-65
2023/09/19 04:15:23;;;;;;;14.00;3.53;;;14.40;99.90;;;;;;5034918;28;20236;-64
2023/09/19 04:17:51;;;;;;;12.10;3.00;;;14.40;99.90;;;;;;5035823;28;20204;-65
2023/09/19 04:20:22;;;;;;;11.33;2.97;;;14.30;99.90;;;;;;5052634;28;20547;-65
2023/09/19 04:22:50;;;;;;;14.80;3.20;;;14.30;99.90;;;;;;5074868;28;20224;-64
2023/09/19 04:25:20;;;;;;;13.47;3.07;;;14.30;99.90;;;;;;5070247;28;20299;-64
2023/09/19 04:27:49;;;;;;;17.57;3.17;;;14.30;99.90;;;;;;5073615;28;20226;-65
2023/09/19 04:30:21;;;;;;;11.50;2.97;;;14.20;99.90;;;;;;5050217;28;20519;-65
2023/09/19 04:32:50;;;;;;;17.10;3.40;;;14.10;99.90;;;;;;5035167;28;20313;-65
2023/09/19 04:35:19;;;;;;;15.63;3.00;;;14.10;99.90;;;;;;5049103;28;20649;-64
2023/09/19 04:37:48;;;;;;;9.03;2.33;;;14.10;99.90;;;;;;5054723;28;20235;-64
2023/09/19 04:40:17;;;;;;;8.00;2.90;;;14.10;99.90;;;;;;5045220;28;20242;-65
2023/09/19 04:42:47;;;;;;;13.13;2.93;;;14.00;99.90;;;;;;5045593;28;20237;-65
2023/09/19 04:45:16;;;;;;;10.63;2.70;;;14.00;99.90;;;;;;5054211;28;20264;-64
2023/09/19 04:47:46;;;;;;;15.80;3.13;;;14.00;99.90;;;;;;5055092;28;20640;-65
2023/09/19 04:50:14;;;;;;;12.40;3.07;;;14.00;99.90;;;;;;5054733;28;20557;-65
2023/09/19 04:52:44;;;;;;;17.83;3.20;;;14.00;99.90;;;;;;5052896;28;20692;-65
2023/09/19 04:55:16;;;;;;;13.67;2.60;;;13.90;99.90;;;;;;5045586;28;20327;-65
2023/09/19 04:57:46;;;;;;;12.73;2.80;;;13.90;99.90;;;;;;5040125;28;20249;-65
2023/09/19 05:00:16;;;;;;;13.10;2.97;;;13.90;99.90;;;;;;5046089;28;20189;-64
2023/09/19 05:02:46;;;;;;;15.37;2.80;;;13.90;99.90;;;;;;5034705;28;20203;-64
2023/09/19 05:05:16;;;;;;;13.27;3.00;;;13.90;99.90;;;;;;5052213;28;20232;-65
2023/09/19 05:07:45;;;;;;;16.23;2.87;;;13.90;99.90;;;;;;5049820;28;20227;-65
2023/09/19 05:10:14;;;;;;;10.50;2.80;;;13.90;99.90;;;;;;5015653;28;20280;-64
2023/09/19 05:12:45;;;;;;;7.93;2.73;;;13.90;99.90;;;;;;5033340;28;20231;-64
2023/09/19 05:15:16;;;;;;;11.27;2.87;;;13.90;99.90;;;;;;5033681;28;20229;-64
2023/09/19 05:17:51;;;;;;;16.60;3.73;;;13.90;99.90;;;;;;5042067;28;20285;-64
2023/09/19 05:20:29;;;;;;;12.73;2.57;;;13.90;99.90;;;;;;5040685;28;20221;-65
2023/09/19 05:23:07;;;;;;;14.10;3.30;;;13.90;99.90;;;;;;5041319;28;20220;-64
2023/09/19 05:25:38;;;;;;;14.67;2.90;;;14.00;99.90;;;;;;5033398;28;20232;-64
2023/09/19 05:28:08;;;;;;;15.40;3.50;;;14.00;99.90;;;;;;5033154;28;20236;-64
2023/09/19 05:30:38;;;;;;;14.07;3.40;;;14.00;99.90;;;;;;5022212;28;20310;-64
2023/09/19 05:33:08;;;;;;;7.13;2.57;;;14.00;99.90;;;;;;5024401;28;20220;-65
2023/09/19 05:35:39;;;;;;;11.30;2.83;;;14.00;99.90;;;;;;5040194;28;20197;-64
2023/09/19 05:38:08;;;;;;;9.53;2.63;;;14.10;99.90;;;;;;5026182;28;20225;-64
2023/09/19 05:40:38;;;;;;;11.73;3.10;;;14.10;99.90;;;;;;5032861;28;20325;-64
2023/09/19 05:43:07;;;;;;;12.37;3.03;;;14.00;99.90;;;;;;5033565;28;20557;-64
2023/09/19 05:45:36;;;;;;;15.97;3.33;;;14.10;99.90;;;;;;5026774;28;20225;-64
2023/09/19 05:48:11;;;;;;;7.23;2.87;;;14.10;99.90;;;;;;5033709;28;20193;-64
2023/09/19 05:50:40;;;;;;;15.13;3.30;;;14.10;99.90;;;;;;5033790;28;20212;-64
2023/09/19 05:53:14;;;;;;;10.77;3.03;;;14.10;99.90;;;;;;5033377;28;20289;-64
2023/09/19 05:55:43;;;;;;;14.70;3.00;;;14.10;99.90;;;;;;5019965;28;20706;-64
2023/09/19 05:58:13;;;;;;;9.53;2.70;;;14.10;99.90;;;;;;5025872;28;20218;-64
2023/09/19 06:00:44;;;;;;;15.73;3.10;;;14.10;99.90;;;;;;5033076;28;20339;-65
2023/09/19 06:03:14;;;;;;;13.63;3.10;;;14.20;99.90;;;;;;5032741;28;20636;-64
2023/09/19 06:05:43;;;;;;;12.30;2.73;;;14.20;99.90;;;;;;5033289;28;20198;-64
2023/09/19 06:08:11;;;;;;;10.45;3.17;;;14.30;99.90;;;;;;5021723;28;20443;-64
2023/09/19 06:10:40;;;;;;;7.27;2.70;;;14.20;99.90;;;;;;5013010;28;20679;-64
2023/09/19 06:16:50;;;;;;;11.80;2.67;;;14.30;99.90;;;;;;5047486;28;21277;-64
2023/09/19 06:19:22;;;;;;;16.53;3.00;;;14.30;99.90;;;;;;5051716;28;20218;-64
2023/09/19 06:21:51;;;;;;;23.37;2.73;;;14.30;99.90;;;;;;5024454;28;20226;-64
2023/09/19 06:24:21;;;;;;;15.13;3.60;;;14.40;99.90;;;;;;5023398;28;20186;-64
2023/09/19 06:26:49;;;;;;;10.20;2.87;;;14.50;99.90;;;;;;5060169;28;20207;-65
2023/09/19 06:29:18;;;;;;;8.00;2.67;;;14.50;99.90;;;;;;5043207;28;20244;-65
2023/09/19 06:31:47;;;;;;;11.07;2.60;;;14.60;99.90;;;;;;5046981;28;20695;-64
2023/09/19 06:34:16;;;;;;;11.30;2.97;;;14.70;99.90;;;;;;5052394;28;20234;-64
2023/09/19 06:36:46;;;;;;;8.83;2.43;;;14.70;99.90;;;;;;5029447;28;20230;-64
2023/09/19 06:39:14;;;;;;;15.77;2.67;;;14.70;99.90;;;;;;5039852;28;20228;-65
2023/09/19 06:41:42;;;;;;;11.40;2.93;;;14.70;99.90;;;;;;5045569;28;20587;-64
2023/09/19 06:44:11;;;;;;;11.63;2.43;;;14.80;99.90;;;;;;5045682;28;20227;-64
2023/09/19 06:46:40;;;;;;;18.17;2.80;;;14.90;99.90;;;;;;5039234;28;20317;-64
2023/09/19 06:49:10;;;;;;;11.80;3.00;;;14.90;99.90;;;;;;5043333;28;20280;-64
2023/09/19 06:51:39;;;;;;;12.70;2.53;;;15.00;99.90;;;;;;5056362;28;20224;-64
2023/09/19 06:54:08;;;;;;;11.47;2.90;;;15.00;99.90;;;;;;5066126;28;20208;-64
2023/09/19 06:56:37;;;;;;;10.63;2.73;;;15.00;99.90;;;;;;5055688;28;20208;-64
2023/09/19 06:59:06;;;;;;;12.67;2.83;;;15.10;99.90;;;;;;5039961;28;20230;-63
2023/09/19 07:01:36;;;;;;;17.97;3.03;;;15.10;99.90;;;;;;5036393;28;20234;-64
2023/09/19 07:04:05;;;;;;;11.53;3.00;;;15.20;99.90;;;;;;5036046;28;20688;-64
2023/09/19 07:10:16;;;;;;;10.70;2.53;;;15.30;99.90;;;;;;5031581;28;20218;-64
2023/09/19 07:12:44;;;;;;;12.07;2.87;;;15.50;99.90;;;;;;5036383;28;20277;-64
2023/09/19 07:15:13;;;;;;;10.37;2.67;;;15.70;99.90;;;;;;5052889;28;20246;-63
2023/09/19 07:17:42;;;;;;;11.47;2.77;;;15.80;99.90;;;;;;5045992;28;20754;-64
2023/09/19 07:20:16;;;;;;;13.63;2.43;;;15.80;99.90;;;;;;5035935;28;20305;-63
2023/09/19 07:22:44;;;;;;;10.73;2.60;;;15.80;99.90;;;;;;5036193;28;20310;-64
2023/09/19 07:25:13;;;;;;;9.63;2.63;;;15.90;99.90;;;;;;5036245;28;20703;-64
2023/09/19 07:27:43;;;;;;;9.23;2.40;;;16.10;99.90;;;;;;5036336;28;20302;-64
2023/09/19 07:30:14;;;;;;;7.27;2.50;;;16.20;99.90;;;;;;5036639;28;20266;-64
2023/09/19 07:32:43;;;;;;;6.83;2.43;;;16.20;99.90;;;;;;5036504;28;20550;-64
2023/09/19 07:35:12;;;;;;;10.03;2.73;;;16.30;99.90;;;;;;5035694;28;20319;-64
2023/09/19 07:37:40;;;;;;;9.37;2.57;;;16.30;99.90;;;;;;5042954;28;20227;-64
2023/09/19 07:40:10;;;;;;;10.77;3.00;;;16.40;99.90;;;;;;5026818;28;20229;-65
2023/09/19 07:42:40;;;;;;;11.47;3.17;;;16.60;99.90;;;;;;5031778;28;20232;-64
2023/09/19 07:45:14;;;;;;;10.17;2.80;;;16.70;99.90;;;;;;5036120;28;20177;-65
2023/09/19 07:47:45;;;;;;;9.67;2.40;;;16.70;99.90;;;;;;5038362;28;20190;-64
2023/09/19 07:50:16;;;;;;;11.73;3.20;;;16.80;99.90;;;;;;5055334;28;20228;-65
2023/09/19 07:52:45;;;;;;;11.53;3.20;;;16.80;99.90;;;;;;5037369;28;20275;-64
2023/09/19 07:55:16;;;;;;;11.77;2.80;;;16.90;99.90;;;;;;5026467;28;20308;-64
2023/09/19 07:57:44;;;;;;;12.43;2.33;;;17.00;99.90;;;;;;5021011;28;20241;-64
2023/09/19 08:00:16;;;;;;;12.00;2.80;;;17.10;99.90;;;;;;5033977;28;20196;-64
2023/09/19 08:02:47;;;;;;;12.77;2.67;;;17.10;99.90;;;;;;5028670;28;20203;-63
2023/09/19 08:05:26;;;;;;;8.70;2.27;;;17.30;99.90;;;;;;5019728;28;20232;-64
2023/09/19 08:08:14;;;;;;;10.10;2.80;;;17.40;99.90;;;;;;5034300;28;20228;-64
2023/09/19 08:10:48;;;;;;;13.93;2.83;;;17.40;99.90;;;;;;5050974;28;20264;-63
2023/09/19 08:13:18;;;;;;;9.47;2.57;;;17.40;99.90;;;;;;5034928;28;20236;-64
2023/09/19 08:15:48;;;;;;;8.33;2.70;;;17.50;99.90;;;;;;5034690;28;20243;-65
2023/09/19 08:18:17;;;;;;;10.47;2.50;;;17.60;99.90;;;;;;5034836;28;20193;-64
2023/09/19 08:20:51;;;;;;;13.27;2.50;;;17.50;99.90;;;;;;5043891;28;20220;-64
2023/09/19 08:23:19;;;;;;;8.50;2.40;;;17.50;99.90;;;;;;5054619;28;20243;-64
2023/09/19 08:25:48;;;;;;;7.93;2.47;;;17.50;99.90;;;;;;5040405;28;20933;-64
2023/09/19 08:28:19;;;;;;;8.77;2.67;;;17.70;99.90;;;;;;5043412;28;20303;-64
2023/09/19 08:30:49;;;;;;;11.37;2.50;;;17.80;99.90;;;;;;5039909;28;20643;-64
2023/09/19 08:33:17;;;;;;;19.63;2.70;;;18.00;99.90;;;;;;5034548;28;20199;-63
2023/09/19 08:35:46;;;;;;;12.57;2.80;;;18.10;99.90;;;;;;5035319;28;20798;-64
2023/09/19 08:38:15;;;;;;;13.10;2.90;;;18.10;99.90;;;;;;5035944;28;20248;-64
2023/09/19 08:40:43;;;;;;;10.90;2.47;;;18.20;99.90;;;;;;5049905;28;20236;-65
2023/09/19 08:43:12;;;;;;;11.10;2.40;;;18.20;99.90;;;;;;5033598;28;20225;-65
2023/09/19 08:45:43;;;;;;;8.70;1.93;;;18.30;99.90;;;;;;5019222;28;20345;-64
2023/09/19 08:48:24;;;;;;;7.80;2.47;;;18.30;99.90;;;;;;5041391;28;20186;-64
2023/09/19 08:50:58;;;;;;;10.17;2.60;;;18.20;99.90;;;;;;5031199;28;20196;-65
2023/09/19 08:53:33;;;;;;;11.27;2.37;;;18.30;99.90;;;;;;5031544;28;20568;-64
2023/09/19 08:56:03;;;;;;;10.93;2.93;;;18.20;99.90;;;;;;5036059;28;20232;-65
2023/09/19 08:58:36;;;;;;;11.10;2.27;;;18.20;99.90;;;;;;5046299;28;20599;-65
2023/09/19 09:01:06;;;;;;;13.43;3.13;;;18.10;99.90;;;;;;5051290;28;20217;-64
2023/09/19 09:03:38;;;;;;;9.97;2.50;;;18.20;99.90;;;;;;5051018;28;20225;-65
2023/09/19 09:06:10;;;;;;;7.47;2.37;;;18.20;99.90;;;;;;5054207;28;20176;-65
2023/09/19 09:08:39;;;;;;;9.70;2.63;;;18.20;99.90;;;;;;5054405;28;20654;-65
2023/09/19 09:11:08;;;;;;;8.73;2.40;;;18.30;99.90;;;;;;5055194;28;20216;-65
2023/09/19 09:13:38;;;;;;;11.17;2.37;;;18.30;99.90;;;;;;5053513;28;20591;-64
2023/09/19 09:16:07;;;;;;;8.93;2.73;;;18.30;99.90;;;;;;5062370;28;20238;-65
2023/09/19 09:18:37;;;;;;;6.00;2.20;;;18.40;99.90;;;;;;5054444;28;20540;-65
2023/09/19 09:21:05;;;;;;;10.63;2.00;;;18.40;99.90;;;;;;5050568;28;20197;-65
2023/09/19 09:23:34;;;;;;;5.30;2.00;;;18.50;99.90;;;;;;5052439;28;20188;-65
2023/09/19 09:26:05;;;;;;;5.73;2.13;;;18.60;99.90;;;;;;5053641;28;20227;-65
2023/09/19 09:28:35;;;;;;;10.20;2.30;;;18.50;99.90;;;;;;5061441;28;20649;-65
2023/09/19 09:31:08;;;;;;;8.13;2.00;;;18.50;99.90;;;;;;5056390;28;20612;-65
2023/09/19 09:33:39;;;;;;;6.73;2.07;;;18.30;99.90;;;;;;5053853;28;20244;-64
2023/09/19 09:36:09;;;;;;;9.20;1.77;;;18.30;99.90;;;;;;5058337;28;20218;-64
2023/09/19 09:38:46;;;;;;;7.97;2.70;;;18.20;99.90;;;;;;5057028;28;20203;-64
2023/09/19 09:41:27;;;;;;;3.80;1.97;;;18.40;99.90;;;;;;5052834;28;20220;-63
2023/09/19 09:43:55;;;;;;;7.00;2.03;;;18.40;99.90;;;;;;5066195;28;20277;-64
2023/09/19 09:49:26;;;;;;;6.37;1.80;;;18.40;99.90;;;;;;5046575;28;20244;-62
2023/09/19 09:52:07;;;;;;;6.37;1.90;;;18.50;99.90;;;;;;5058875;28;20564;-64
2023/09/19 09:54:41;;;;;;;6.17;2.00;;;18.60;99.90;;;;;;5058104;28;20224;-64
2023/09/19 09:57:17;;;;;;;6.60;2.13;;;18.70;99.90;;;;;;5043478;28;20611;-64
2023/09/19 09:59:47;;;;;;;7.63;1.90;;;18.80;99.90;;;;;;5053058;28;20223;-64
2023/09/19 10:02:22;;;;;;;8.23;2.03;;;19.00;99.90;;;;;;5044023;28;20232;-64
2023/09/19 10:04:58;;;;;;;12.77;2.03;;;19.10;99.90;;;;;;5038658;28;20224;-64
2023/09/19 10:07:32;;;;;;;7.17;1.80;;;19.10;99.90;;;;;;5035998;28;20220;-63
2023/09/19 10:10:15;;;;;;;4.60;1.80;;;19.10;99.90;;;;;;5047166;28;20228;-64
2023/09/19 10:12:49;;;;;;;6.03;2.00;;;19.20;99.90;;;;;;5044914;28;20236;-62
2023/09/19 10:15:20;;;;;;;4.90;1.70;;;19.50;99.90;;;;;;5051906;28;20235;-64
2023/09/19 10:17:49;;;;;;;5.83;1.97;;;19.70;99.90;;;;;;5053280;28;20195;-64
2023/09/19 10:20:33;;;;;;;3.90;1.50;;;19.70;99.90;;;;;;5055758;28;20618;-64
2023/09/19 10:23:09;;;;;;;4.63;1.80;;;19.70;99.90;;;;;;5048970;28;20274;-65
2023/09/19 10:25:39;;;;;;;4.80;1.77;;;20.00;99.90;;;;;;5046607;28;20294;-64
2023/09/19 10:28:11;;;;;;;7.50;1.90;;;19.90;99.90;;;;;;5066256;28;20277;-64
2023/09/19 10:30:44;;;;;;;11.77;1.47;;;19.90;99.90;;;;;;5054374;28;20286;-63
2023/09/19 10:33:14;;;;;;;3.77;1.53;;;20.10;99.90;;;;;;5065620;28;20198;-64
2023/09/19 10:35:45;;;;;;;8.00;2.10;;;20.30;99.90;;;;;;5055921;28;20205;-64
2023/09/19 10:38:21;;;;;;;7.40;1.93;;;20.40;99.90;;;;;;5057532;28;20220;-64
2023/09/19 10:40:51;;;;;;;3.17;1.70;;;20.30;99.90;;;;;;5058026;28;20251;-63
2023/09/19 10:43:21;;;;;;;3.70;1.50;;;20.30;99.90;;;;;;5048938;28;20216;-63
2023/09/19 10:45:53;;;;;;;4.67;1.23;;;20.40;99.90;;;;;;5065694;28;20643;-64
2023/09/19 10:48:25;;;;;;;2.77;1.63;;;20.50;99.90;;;;;;5066776;28;20276;-63
2023/09/19 10:51:04;;;;;;;3.17;1.20;;;20.50;99.90;;;;;;5070981;28;20203;-64
2023/09/19 10:53:47;;;;;;;2.77;1.10;;;20.60;99.90;;;;;;5051216;28;20212;-64
2023/09/19 10:56:20;;;;;;;6.53;1.47;;;20.60;99.90;;;;;;5060381;28;20311;-64
2023/09/19 10:58:50;;;;;;;6.63;1.47;;;20.80;99.90;;;;;;5053062;28;20224;-64
2023/09/19 11:09:21;;;;;;;2.30;1.23;;;20.80;99.90;;;;;;5035853;28;20619;-63
2023/09/19 11:11:53;;;;;;;2.03;1.17;;;21.00;99.90;;;;;;5041717;28;20291;-64
2023/09/19 11:14:37;;;;;;;1.73;1.10;;;20.80;99.90;;;;;;5054320;28;20850;-64
2023/09/19 11:17:42;;;;;;;4.90;1.30;;;20.80;99.90;;;;;;5062590;28;20312;-64
2023/09/19 11:28:14;;;;;;;2.83;1.30;;;20.60;99.90;;;;;;5033712;28;20579;-63
2023/09/19 11:30:48;;;;;;;1.93;1.10;;;20.70;99.90;;;;;;5043143;28;20710;-64
2023/09/19 11:33:21;;;;;;;3.07;1.50;;;21.00;99.90;;;;;;5052514;28;20224;-66
2023/09/19 11:36:04;;;;;;;5.67;1.20;;;21.20;99.90;;;;;;5060013;28;20225;-64
2023/09/19 11:39:01;;;;;;;9.07;1.63;;;21.00;99.90;;;;;;5044810;28;20299;-64
2023/09/19 11:41:40;;;;;;;2.03;0.90;;;20.80;99.90;;;;;;5057132;28;20209;-64
2023/09/19 11:44:34;;;;;;;3.80;1.20;;;20.80;99.90;;;;;;5059300;28;20778;-63
2023/09/19 11:47:07;;;;;;;7.73;1.50;;;20.90;99.90;;;;;;5042425;28;20585;-63
2023/09/19 11:49:36;;;;;;;2.73;1.40;;;21.00;99.90;;;;;;5057527;28;20228;-62
2023/09/19 11:52:08;;;;;;;1.30;1.30;;;20.90;99.90;;;;;;5069399;28;20277;-64
2023/09/19 11:54:40;;;;;;;5.60;1.60;;;20.90;99.90;;;;;;5053968;28;20282;-63
2023/09/19 11:57:12;;;;;;;6.30;1.50;;;21.20;99.90;;;;;;5056055;28;20270;-63
2023/09/19 11:59:40;;;;;;;4.10;1.33;;;21.40;99.90;;;;;;5056110;28;20308;-63
2023/09/19 12:02:18;;;;;;;7.77;1.73;;;21.20;99.90;;;;;;5054064;28;20227;-64
2023/09/19 12:04:49;;;;;;;2.13;1.30;;;21.10;99.90;;;;;;5056862;28;20274;-64
2023/09/19 12:07:18;;;;;;;4.00;1.50;;;21.20;99.90;;;;;;5056085;28;20233;-61
2023/09/19 12:09:49;;;;;;;7.50;1.20;;;21.20;99.90;;;;;;5056297;28;20249;-63
2023/09/19 12:12:21;;;;;;;6.67;1.40;;;21.20;99.90;;;;;;5051410;28;20262;-63
2023/09/19 12:14:50;;;;;;;2.73;1.43;;;21.10;99.90;;;;;;5067519;28;20197;-63
2023/09/19 12:17:22;;;;;;;3.17;1.60;;;20.80;99.90;;;;;;5041976;28;20226;-63
2023/09/19 12:19:52;;;;;;;2.27;1.60;;;20.60;99.90;;;;;;5046524;28;20598;-64
2023/09/19 12:22:21;;;;;;;6.53;1.50;;;20.50;99.90;;;;;;5054692;28;20215;-64
2023/09/19 12:24:50;;;;;;;2.63;1.20;;;20.70;99.90;;;;;;5052895;28;20224;-64
2023/09/19 12:27:19;;;;;;;2.30;1.57;;;20.80;99.90;;;;;;5047721;28;20189;-64
2023/09/19 12:29:49;;;;;;;3.40;1.40;;;21.00;99.90;;;;;;5053162;28;20612;-63
2023/09/19 12:32:34;;;;;;;4.97;1.50;;;20.90;99.90;;;;;;5063001;28;20254;-62
2023/09/19 12:35:07;;;;;;;7.43;1.60;;;21.10;99.90;;;;;;5054653;28;20210;-64
2023/09/19 12:37:36;;;;;;;5.43;1.60;;;21.20;99.90;;;;;;5052037;28;20221;-64
2023/09/19 12:40:17;;;;;;;1.53;1.43;;;21.20;99.90;;;;;;5053497;28;20235;-63
2023/09/19 12:42:47;;;;;;;9.27;1.63;;;21.00;99.90;;;;;;5051654;28;20272;-64
2023/09/19 12:45:17;;;;;;;2.23;1.50;;;20.80;99.90;;;;;;5055994;28;20185;-64
2023/09/19 12:48:29;;;;;;;4.17;1.70;;;20.80;99.90;;;;;;5055134;28;20212;-64
2023/09/19 12:51:07;;;;;;;4.37;1.30;;;20.80;99.90;;;;;;5019800;28;20221;-64
2023/09/19 12:53:40;;;;;;;3.80;1.63;;;20.80;99.90;;;;;;5035524;28;20232;-64
2023/09/19 12:56:10;;;;;;;6.50;1.60;;;20.70;99.90;;;;;;5052176;28;20219;-64
2023/09/19 12:58:50;;;;;;;4.60;1.67;;;20.70;99.90;;;;;;5040923;28;20214;-63
2023/09/19 13:01:18;;;;;;;6.33;1.70;;;20.60;99.90;;;;;;5043546;28;20221;-64
2023/09/19 13:04:14;;;;;;;5.03;1.50;;;20.50;99.90;;;;;;5063055;28;20226;-64
2023/09/19 13:06:44;;;;;;;3.07;1.57;;;20.50;99.90;;;;;;5056162;28;20220;-64
2023/09/19 13:09:14;;;;;;;3.30;1.60;;;20.70;99.90;;;;;;5064978;28;20193;-64
2023/09/19 13:11:44;;;;;;;7.20;1.80;;;20.90;99.90;;;;;;5055170;28;20193;-64
2023/09/19 13:14:19;;;;;;;3.13;1.70;;;21.10;99.90;;;;;;5055777;28;20223;-63
2023/09/19 13:17:08;;;;;;;7.93;1.50;;;21.10;99.90;;;;;;5051367;28;20279;-64
2023/09/19 13:19:40;;;;;;;2.10;1.30;;;21.10;99.90;;;;;;5058111;28;20233;-65
2023/09/19 13:22:41;;;;;;;3.93;1.40;;;21.00;99.90;;;;;;5047231;28;20225;-64
2023/09/19 13:25:14;;;;;;;2.40;1.40;;;20.90;99.90;;;;;;5049971;28;20624;-64
2023/09/19 13:27:44;;;;;;;2.03;1.30;;;20.80;99.90;;;;;;5062759;28;20650;-63
2023/09/19 13:30:13;;;;;;;5.23;1.47;;;20.80;99.90;;;;;;5055257;28;20199;-64
2023/09/19 13:32:43;;;;;;;4.83;1.60;;;20.90;99.90;;;;;;5041991;28;20200;-64
2023/09/19 13:35:13;;;;;;;1.40;1.23;;;21.00;99.90;;;;;;5035827;28;20221;-63
2023/09/19 13:37:42;;;;;;;2.27;1.50;;;21.00;99.90;;;;;;5034740;28;20225;-63
2023/09/19 13:40:12;;;;;;;5.40;1.87;;;20.90;99.90;;;;;;5035099;28;20767;-63
2023/09/19 13:42:41;;;;;;;3.83;1.43;;;21.00;99.90;;;;;;5036020;28;20538;-63
2023/09/19 13:45:11;;;;;;;3.83;1.30;;;21.10;99.90;;;;;;5032197;28;20205;-63